createdAt,value
2022-12-13T00:01:40.934Z,-6.30
2022-12-13T00:03:43.001Z,-6.40
2022-12-13T00:05:45.371Z,-6.40
2022-12-13T00:07:47.464Z,-6.40
2022-12-13T00:09:49.724Z,-6.40
2022-12-13T00:11:52.303Z,-6.40
2022-12-13T00:13:54.807Z,-6.40
2022-12-13T00:16:01.542Z,-6.40
2022-12-13T00:18:03.298Z,-6.40
2022-12-13T00:20:05.640Z,-6.40
2022-12-13T00:22:07.426Z,-6.40
2022-12-13T00:24:09.512Z,-6.40
2022-12-13T00:26:14.492Z,-6.40
2022-12-13T00:28:16.931Z,-6.30
2022-12-13T00:30:18.855Z,-6.30
2022-12-13T00:32:20.654Z,-6.30
2022-12-13T00:34:22.525Z,-6.40
2022-12-13T00:36:24.318Z,-6.40
2022-12-13T00:38:26.484Z,-6.40
2022-12-13T00:40:29.137Z,-6.40
2022-12-13T00:42:30.870Z,-6.40
2022-12-13T00:44:32.701Z,-6.40
2022-12-13T00:46:34.694Z,-6.30
2022-12-13T00:48:36.409Z,-6.40
2022-12-13T00:50:38.857Z,-6.40
2022-12-13T00:52:40.805Z,-6.40
2022-12-13T00:54:42.468Z,-6.40
2022-12-13T00:56:44.544Z,-6.40
2022-12-13T00:58:51.693Z,-6.50
2022-12-13T01:00:54.290Z,-6.50
2022-12-13T01:02:56.323Z,-6.50
2022-12-13T01:04:57.985Z,-6.50
2022-12-13T01:06:59.986Z,-6.40
2022-12-13T01:09:03.037Z,-6.50
2022-12-13T01:11:05.642Z,-6.50
2022-12-13T01:13:07.496Z,-6.50
2022-12-13T01:15:09.721Z,-6.60
2022-12-13T01:17:11.636Z,-6.60
2022-12-13T01:19:13.427Z,-6.60
2022-12-13T01:21:17.931Z,-6.60
2022-12-13T01:23:19.801Z,-6.60
2022-12-13T01:25:21.447Z,-6.70
2022-12-13T01:27:23.272Z,-6.60
2022-12-13T01:29:26.230Z,-6.70
2022-12-13T01:31:28.753Z,-6.70
2022-12-13T01:33:31.322Z,-6.70
2022-12-13T01:35:35.128Z,-6.70
2022-12-13T01:37:37.588Z,-6.70
2022-12-13T01:39:39.364Z,-6.70
2022-12-13T01:41:41.808Z,-6.70
2022-12-13T01:43:43.495Z,-6.70
2022-12-13T01:45:46.014Z,-6.70
2022-12-13T01:47:51.980Z,-6.70
2022-12-13T01:49:59.646Z,-6.70
2022-12-13T01:52:05.729Z,-6.70
2022-12-13T01:54:12.849Z,-6.70
2022-12-13T01:56:31.263Z,-6.70
2022-12-13T01:58:34.964Z,-6.70
2022-12-13T02:00:36.892Z,-6.80
2022-12-13T02:02:43.513Z,-6.80
2022-12-13T02:05:04.205Z,-6.80
2022-12-13T02:07:06.947Z,-6.80
2022-12-13T02:09:09.749Z,-6.80
2022-12-13T02:11:11.955Z,-6.80
2022-12-13T02:13:13.853Z,-6.80
2022-12-13T02:15:17.774Z,-6.80
2022-12-13T02:17:50.549Z,-6.90
2022-12-13T02:20:24.449Z,-6.90
2022-12-13T02:22:55.787Z,-6.90
2022-12-13T02:25:05.533Z,-6.90
2022-12-13T02:27:30.749Z,-7.00
2022-12-13T02:29:47.717Z,-7.00
2022-12-13T02:32:01.199Z,-7.00
2022-12-13T02:34:07.294Z,-7.00
2022-12-13T02:36:12.812Z,-7.00
2022-12-13T02:38:37.721Z,-7.00
2022-12-13T02:40:45.742Z,-7.00
2022-12-13T02:43:22.569Z,-7.00
2022-12-13T02:45:31.132Z,-7.00
2022-12-13T02:47:35.196Z,-7.00
2022-12-13T02:49:40.508Z,-6.90
2022-12-13T02:51:44.037Z,-7.00
2022-12-13T02:53:46.851Z,-7.00
2022-12-13T02:55:48.631Z,-6.90
2022-12-13T02:57:50.418Z,-6.90
2022-12-13T02:59:52.862Z,-6.90
2022-12-13T03:02:10.297Z,-6.90
2022-12-13T03:04:30.330Z,-6.80
2022-12-13T03:06:52.320Z,-6.80
2022-12-13T03:09:08.923Z,-6.80
2022-12-13T03:11:14.892Z,-6.80
2022-12-13T03:13:40.857Z,-6.80
2022-12-13T03:15:49.676Z,-6.90
2022-12-13T03:17:56.369Z,-6.90
2022-12-13T03:19:58.207Z,-6.90
2022-12-13T03:21:59.853Z,-6.90
2022-12-13T03:24:01.883Z,-7.00
2022-12-13T03:26:13.438Z,-7.00
2022-12-13T03:28:15.455Z,-7.00
2022-12-13T03:30:17.284Z,-6.90
2022-12-13T03:32:19.130Z,-7.00
2022-12-13T03:34:22.555Z,-7.00
2022-12-13T03:36:25.531Z,-7.00
2022-12-13T03:38:27.464Z,-7.00
2022-12-13T03:40:30.527Z,-7.00
2022-12-13T03:42:32.240Z,-7.00
2022-12-13T03:44:34.292Z,-7.00
2022-12-13T03:46:36.116Z,-7.00
2022-12-13T03:48:38.351Z,-7.10
2022-12-13T03:50:40.207Z,-7.10
2022-12-13T03:52:41.939Z,-7.10
2022-12-13T03:54:45.232Z,-7.10
2022-12-13T03:56:47.050Z,-7.10
2022-12-13T03:58:48.807Z,-7.10
2022-12-13T04:00:50.657Z,-7.10
2022-12-13T04:02:52.663Z,-7.10
2022-12-13T04:04:54.350Z,-7.10
2022-12-13T04:07:02.268Z,-7.10
2022-12-13T04:09:04.614Z,-7.10
2022-12-13T04:11:25.867Z,-7.10
2022-12-13T04:13:33.353Z,-7.20
2022-12-13T04:15:37.230Z,-7.20
2022-12-13T04:17:38.953Z,-7.20
2022-12-13T04:19:40.719Z,-7.20
2022-12-13T04:21:42.444Z,-7.20
2022-12-13T04:23:44.151Z,-7.20
2022-12-13T04:25:46.164Z,-7.20
2022-12-13T04:27:47.825Z,-7.30
2022-12-13T04:29:49.640Z,-7.20
2022-12-13T04:31:51.493Z,-7.20
2022-12-13T04:33:53.242Z,-7.20
2022-12-13T04:35:55.076Z,-7.20
2022-12-13T04:37:57.372Z,-7.20
2022-12-13T04:40:00.429Z,-7.20
2022-12-13T04:42:03.575Z,-7.20
2022-12-13T04:44:07.416Z,-7.20
2022-12-13T04:46:29.360Z,-7.20
2022-12-13T04:48:32.661Z,-7.20
2022-12-13T04:50:34.635Z,-7.20
2022-12-13T04:52:37.477Z,-7.20
2022-12-13T04:54:39.396Z,-7.30
2022-12-13T04:56:41.177Z,-7.30
2022-12-13T04:58:43.129Z,-7.30
2022-12-13T05:00:45.663Z,-7.10
2022-12-13T05:02:47.936Z,-7.20
2022-12-13T05:04:53.673Z,-7.20
2022-12-13T05:06:57.228Z,-7.30
2022-12-13T05:09:00.914Z,-7.30
2022-12-13T05:11:03.122Z,-7.20
2022-12-13T05:13:06.018Z,-7.20
2022-12-13T05:15:08.192Z,-7.20
2022-12-13T05:17:09.872Z,-7.20
2022-12-13T05:19:11.573Z,-7.30
2022-12-13T05:21:13.326Z,-7.30
2022-12-13T05:23:14.968Z,-7.30
2022-12-13T05:25:25.290Z,-7.40
2022-12-13T05:27:27.108Z,-7.30
2022-12-13T05:29:29.085Z,-7.40
2022-12-13T05:31:30.839Z,-7.50
2022-12-13T05:33:32.580Z,-7.40
2022-12-13T05:35:34.452Z,-7.50
2022-12-13T05:37:36.137Z,-7.30
2022-12-13T05:39:37.839Z,-7.50
2022-12-13T05:41:39.456Z,-7.40
2022-12-13T05:43:42.960Z,-7.40
2022-12-13T05:45:46.289Z,-7.40
2022-12-13T05:47:49.070Z,-7.40
2022-12-13T05:49:52.106Z,-7.50
2022-12-13T05:51:53.891Z,-7.50
2022-12-13T05:53:55.660Z,-7.50
2022-12-13T05:56:01.596Z,-7.50
2022-12-13T05:58:03.204Z,-7.50
2022-12-13T06:00:29.413Z,-7.50
2022-12-13T06:02:29.758Z,-7.50
2022-12-13T06:04:31.595Z,-7.50
2022-12-13T06:06:33.432Z,-7.50
2022-12-13T06:08:35.571Z,-7.50
2022-12-13T06:10:37.676Z,-7.50
2022-12-13T06:12:43.329Z,-7.60
2022-12-13T06:14:45.648Z,-7.60
2022-12-13T06:16:47.832Z,-7.60
2022-12-13T06:18:50.664Z,-7.60
2022-12-13T06:20:58.437Z,-7.60
2022-12-13T06:23:00.161Z,-7.50
2022-12-13T06:25:02.168Z,-7.50
2022-12-13T06:27:05.230Z,-7.60
2022-12-13T06:29:06.915Z,-7.60
2022-12-13T06:31:08.710Z,-7.60
2022-12-13T06:33:13.259Z,-7.60
2022-12-13T06:35:29.876Z,-7.50
2022-12-13T06:37:32.313Z,-7.60
2022-12-13T06:39:35.081Z,-7.60
2022-12-13T06:41:37.110Z,-7.70
2022-12-13T06:43:42.781Z,-7.70
2022-12-13T06:45:44.592Z,-7.70
2022-12-13T06:47:46.604Z,-7.70
2022-12-13T06:49:48.470Z,-7.60
2022-12-13T06:51:50.226Z,-7.70
2022-12-13T06:53:51.894Z,-7.70
2022-12-13T06:55:53.828Z,-7.70
2022-12-13T06:57:59.886Z,-7.70
2022-12-13T07:00:03.508Z,-7.70
2022-12-13T07:02:05.828Z,-7.70
2022-12-13T07:04:29.362Z,-7.70
2022-12-13T07:06:31.085Z,-7.70
2022-12-13T07:08:33.232Z,-7.60
2022-12-13T07:10:35.262Z,-7.60
2022-12-13T07:12:37.270Z,-7.60
2022-12-13T07:14:40.431Z,-7.60
2022-12-13T07:16:43.037Z,-7.60
2022-12-13T07:18:44.843Z,-7.60
2022-12-13T07:20:46.676Z,-7.50
2022-12-13T07:22:58.322Z,-7.50
2022-12-13T07:25:00.641Z,-7.50
2022-12-13T07:27:03.367Z,-7.40
2022-12-13T07:29:05.416Z,-7.30
2022-12-13T07:31:09.363Z,-7.10
2022-12-13T07:33:11.477Z,-6.90
2022-12-13T07:35:13.166Z,-6.70
2022-12-13T07:37:29.250Z,-6.50
2022-12-13T07:39:32.652Z,-6.40
2022-12-13T07:41:34.648Z,-6.10
2022-12-13T07:43:37.109Z,-5.90
2022-12-13T07:45:38.811Z,-5.90
2022-12-13T07:47:40.689Z,-5.90
2022-12-13T07:49:43.197Z,-6.00
2022-12-13T07:51:44.894Z,-5.90
2022-12-13T07:53:46.864Z,-5.80
2022-12-13T07:55:48.685Z,-5.60
2022-12-13T07:57:50.435Z,-5.40
2022-12-13T07:59:52.222Z,-5.20
2022-12-13T08:01:54.156Z,-5.00
2022-12-13T08:03:56.422Z,-4.80
2022-12-13T08:06:06.759Z,-4.60
2022-12-13T08:08:10.338Z,-4.70
2022-12-13T08:10:12.058Z,-4.90
2022-12-13T08:12:13.778Z,-4.90
2022-12-13T08:14:24.189Z,-4.80
2022-12-13T08:16:29.070Z,-4.60
2022-12-13T08:18:31.639Z,-4.30
2022-12-13T08:20:33.292Z,-4.10
2022-12-13T08:22:35.884Z,-3.80
2022-12-13T08:24:38.037Z,-3.70
2022-12-13T08:26:39.708Z,-3.80
2022-12-13T08:28:44.152Z,-3.80
2022-12-13T08:30:46.356Z,-3.80
2022-12-13T08:32:50.052Z,-3.70
2022-12-13T08:34:52.101Z,-3.40
2022-12-13T08:36:53.930Z,-3.30
2022-12-13T08:39:04.744Z,-3.20
2022-12-13T08:41:07.335Z,-3.00
2022-12-13T08:43:09.161Z,-3.00
2022-12-13T08:45:11.307Z,-2.90
2022-12-13T08:47:23.664Z,-3.00
2022-12-13T08:49:27.284Z,-3.00
2022-12-13T08:51:35.266Z,-3.10
2022-12-13T08:53:41.107Z,-3.10
2022-12-13T08:55:43.532Z,-3.30
2022-12-13T08:57:46.168Z,-3.30
2022-12-13T08:59:47.885Z,-2.90
2022-12-13T09:01:49.600Z,-2.60
2022-12-13T09:03:56.982Z,-2.20
2022-12-13T09:06:05.795Z,-1.70
2022-12-13T09:08:24.520Z,-1.30
2022-12-13T09:10:38.779Z,-1.10
2022-12-13T09:12:43.713Z,-1.00
2022-12-13T09:14:46.721Z,-0.80
2022-12-13T09:16:50.954Z,-0.70
2022-12-13T09:18:54.763Z,-0.40
2022-12-13T09:21:10.288Z,-0.30
2022-12-13T09:23:13.909Z,-0.10
2022-12-13T09:25:24.941Z,0.10
2022-12-13T09:27:28.760Z,0.10
2022-12-13T09:29:32.066Z,0.00
2022-12-13T09:31:36.092Z,0.10
2022-12-13T09:33:41.147Z,0.20
2022-12-13T09:35:44.443Z,0.60
2022-12-13T09:37:46.411Z,0.90
2022-12-13T09:39:48.266Z,1.00
2022-12-13T09:42:00.936Z,1.00
2022-12-13T09:44:33.024Z,1.10
2022-12-13T09:46:45.546Z,1.30
2022-12-13T09:48:48.359Z,1.10
2022-12-13T09:51:16.559Z,0.80
2022-12-13T09:53:21.779Z,0.60
2022-12-13T09:55:37.934Z,0.50
2022-12-13T09:57:39.655Z,0.40
2022-12-13T09:59:42.196Z,0.40
2022-12-13T10:01:44.898Z,0.50
2022-12-13T10:03:50.979Z,0.70
2022-12-13T10:06:01.225Z,0.90
2022-12-13T10:08:24.171Z,1.10
2022-12-13T10:10:27.115Z,1.20
2022-12-13T10:12:29.396Z,1.40
2022-12-13T10:14:39.686Z,1.40
2022-12-13T10:16:49.532Z,1.40
2022-12-13T10:18:51.995Z,1.50
2022-12-13T10:20:55.612Z,1.40
2022-12-13T10:25:44.506Z,1.20
2022-12-13T10:27:47.642Z,0.80
2022-12-13T10:30:00.636Z,0.70
2022-12-13T10:32:12.695Z,0.80
2022-12-13T10:34:30.604Z,0.80
2022-12-13T10:36:35.527Z,0.60
2022-12-13T10:38:42.834Z,0.30
2022-12-13T10:40:45.597Z,0.20
2022-12-13T10:43:20.428Z,0.30
2022-12-13T10:45:24.451Z,0.20
2022-12-13T10:47:26.429Z,0.10
2022-12-13T10:49:46.630Z,0.00
2022-12-13T10:51:50.312Z,0.10
2022-12-13T10:53:56.737Z,0.30
2022-12-13T10:56:02.470Z,0.30
2022-12-13T10:58:17.967Z,0.10
2022-12-13T11:00:32.410Z,0.00
2022-12-13T11:02:35.605Z,0.10
2022-12-13T11:04:37.321Z,0.10
2022-12-13T11:06:48.554Z,0.20
2022-12-13T11:08:50.248Z,0.10
2022-12-13T11:11:19.085Z,-0.10
2022-12-13T11:13:38.891Z,-0.40
2022-12-13T11:15:40.676Z,-0.50
2022-12-13T11:17:52.636Z,-0.50
2022-12-13T11:20:04.501Z,-0.30
2022-12-13T11:22:08.931Z,-0.10
2022-12-13T11:24:24.117Z,0.00
2022-12-13T11:26:28.494Z,0.00
2022-12-13T11:28:48.182Z,0.00
2022-12-13T11:31:01.431Z,-0.20
2022-12-13T11:33:09.166Z,-0.10
2022-12-13T11:35:28.177Z,-0.10
2022-12-13T11:37:54.725Z,-0.10
2022-12-13T11:40:09.876Z,-0.20
2022-12-13T11:42:37.548Z,-0.20
2022-12-13T11:44:48.086Z,-0.10
2022-12-13T11:46:54.112Z,-0.20
2022-12-13T11:49:03.081Z,-0.40
2022-12-13T11:51:08.833Z,-0.40
2022-12-13T11:53:23.695Z,-0.30
2022-12-13T11:55:39.817Z,-0.10
2022-12-13T11:57:53.164Z,0.00
2022-12-13T12:00:33.736Z,0.00
2022-12-13T12:02:42.889Z,0.20
2022-12-13T12:04:56.655Z,0.10
2022-12-13T12:07:32.224Z,0.10
2022-12-13T12:09:37.198Z,-0.10
2022-12-13T12:11:42.564Z,-0.20
2022-12-13T12:13:51.114Z,-0.30
2022-12-13T12:16:01.051Z,-0.20
2022-12-13T12:18:02.892Z,-0.20
2022-12-13T12:20:07.240Z,-0.20
2022-12-13T12:22:28.458Z,-0.10
2022-12-13T12:24:52.804Z,-0.10
2022-12-13T12:27:22.686Z,-0.20
2022-12-13T12:29:55.105Z,0.00
2022-12-13T12:32:02.868Z,0.10
2022-12-13T12:34:27.674Z,0.20
2022-12-13T12:36:48.741Z,0.30
2022-12-13T12:39:28.232Z,0.20
2022-12-13T12:41:48.405Z,0.30
2022-12-13T12:44:36.071Z,0.30
2022-12-13T12:47:18.148Z,0.40
2022-12-13T12:49:17.864Z,0.30
2022-12-13T12:52:06.008Z,0.30
2022-12-13T12:54:27.443Z,0.30
2022-12-13T12:56:50.069Z,0.30
2022-12-13T12:59:10.169Z,0.40
2022-12-13T13:01:33.447Z,0.30
2022-12-13T13:03:41.645Z,0.20
2022-12-13T13:05:55.816Z,0.20
2022-12-13T13:08:25.752Z,0.30
2022-12-13T13:10:28.395Z,0.30
2022-12-13T13:12:43.123Z,0.30
2022-12-13T13:14:45.393Z,0.20
2022-12-13T13:16:47.161Z,0.30
2022-12-13T13:18:54.300Z,0.30
2022-12-13T13:21:30.679Z,0.30
2022-12-13T13:23:44.080Z,0.50
2022-12-13T13:26:15.784Z,0.60
2022-12-13T13:28:19.183Z,0.70
2022-12-13T13:30:26.108Z,0.80
2022-12-13T13:32:31.370Z,0.80
2022-12-13T13:34:44.115Z,0.80
2022-12-13T13:36:47.371Z,0.60
2022-12-13T13:38:53.033Z,0.50
2022-12-13T13:40:54.778Z,0.30
2022-12-13T13:43:06.345Z,0.00
2022-12-13T13:45:25.319Z,-0.20
2022-12-13T13:47:27.005Z,-0.50
2022-12-13T13:49:31.473Z,-0.50
2022-12-13T13:52:16.587Z,-0.60
2022-12-13T13:54:24.312Z,-0.60
2022-12-13T13:57:04.606Z,-0.90
2022-12-13T13:59:43.353Z,-1.20
2022-12-13T14:02:17.767Z,-1.40
2022-12-13T14:04:56.020Z,-1.50
2022-12-13T14:07:51.271Z,-1.60
2022-12-13T14:10:03.747Z,-1.60
2022-12-13T14:12:42.888Z,-1.60
2022-12-13T14:15:15.990Z,-1.70
2022-12-13T14:17:34.951Z,-1.70
2022-12-13T14:19:37.927Z,-1.70
2022-12-13T14:22:06.383Z,-1.80
2022-12-13T14:24:45.396Z,-1.80
2022-12-13T14:27:18.475Z,-1.90
2022-12-13T14:29:48.473Z,-2.00
2022-12-13T14:32:00.870Z,-2.00
2022-12-13T14:34:04.416Z,-2.10
2022-12-13T14:36:06.411Z,-2.10
2022-12-13T14:38:22.795Z,-2.10
2022-12-13T14:40:29.027Z,-2.20
2022-12-13T14:42:36.232Z,-2.30
2022-12-13T14:44:37.864Z,-2.30
2022-12-13T14:46:52.315Z,-2.40
2022-12-13T14:48:54.405Z,-2.50
2022-12-13T14:50:56.452Z,-2.50
2022-12-13T14:52:58.925Z,-2.60
2022-12-13T14:55:04.653Z,-2.60
2022-12-13T14:57:06.437Z,-2.60
2022-12-13T14:59:13.019Z,-2.70
2022-12-13T15:01:30.043Z,-2.70
2022-12-13T15:03:32.424Z,-2.80
2022-12-13T15:05:50.517Z,-2.90
2022-12-13T15:07:53.306Z,-2.90
2022-12-13T15:10:00.556Z,-2.90
2022-12-13T15:12:24.301Z,-2.90
2022-12-13T15:14:27.432Z,-3.00
2022-12-13T15:16:29.683Z,-3.10
2022-12-13T15:18:31.501Z,-3.10
2022-12-13T15:20:33.889Z,-3.10
2022-12-13T15:22:35.704Z,-3.10
2022-12-13T15:24:41.273Z,-3.20
2022-12-13T15:26:43.316Z,-3.20
2022-12-13T15:28:47.712Z,-3.30
2022-12-13T15:30:50.105Z,-3.30
2022-12-13T15:33:42.724Z,-3.40
2022-12-13T15:36:06.712Z,-3.40
2022-12-13T15:38:14.817Z,-3.50
2022-12-13T15:40:31.340Z,-3.60
2022-12-13T15:42:37.139Z,-3.60
2022-12-13T15:44:53.703Z,-3.60
2022-12-13T15:47:27.937Z,-3.70
2022-12-13T15:49:37.968Z,-3.70
2022-12-13T15:51:57.663Z,-3.70
2022-12-13T15:54:11.254Z,-3.70
2022-12-13T15:56:35.656Z,-3.70
2022-12-13T15:58:37.795Z,-3.80
2022-12-13T16:00:48.872Z,-3.80
2022-12-13T16:03:09.832Z,-3.80
2022-12-13T16:05:31.105Z,-3.80
2022-12-13T16:07:39.812Z,-3.90
2022-12-13T16:09:41.686Z,-3.90
2022-12-13T16:11:50.621Z,-3.90
2022-12-13T16:13:52.485Z,-4.00
2022-12-13T16:16:26.602Z,-4.00
2022-12-13T16:18:41.519Z,-4.00
2022-12-13T16:20:43.973Z,-4.00
2022-12-13T16:22:45.963Z,-4.10
2022-12-13T16:24:48.892Z,-4.10
2022-12-13T16:26:50.569Z,-4.10
2022-12-13T16:28:53.445Z,-4.20
2022-12-13T16:31:04.072Z,-4.20
2022-12-13T16:33:27.262Z,-4.20
2022-12-13T16:35:27.504Z,-4.20
2022-12-13T16:37:29.295Z,-4.20
2022-12-13T16:39:31.006Z,-4.30
2022-12-13T16:41:43.120Z,-4.20
2022-12-13T16:44:01.423Z,-4.20
2022-12-13T16:47:17.431Z,-4.20
2022-12-13T16:48:29.064Z,-4.30
2022-12-13T16:50:31.536Z,-4.30
2022-12-13T16:52:33.195Z,-4.30
2022-12-13T16:54:35.522Z,-4.30
2022-12-13T16:56:37.207Z,-4.30
2022-12-13T16:58:40.668Z,-4.40
2022-12-13T17:00:45.370Z,-4.40
2022-12-13T17:02:47.363Z,-4.40
2022-12-13T17:04:49.109Z,-4.50
2022-12-13T17:06:54.596Z,-4.40
2022-12-13T17:08:57.163Z,-4.50
2022-12-13T17:10:59.160Z,-4.50
2022-12-13T17:13:00.867Z,-4.60
2022-12-13T17:15:02.755Z,-4.50
2022-12-13T17:17:04.505Z,-4.60
2022-12-13T17:19:06.455Z,-4.60
2022-12-13T17:21:09.397Z,-4.70
2022-12-13T17:23:17.742Z,-4.70
2022-12-13T17:25:19.826Z,-4.70
2022-12-13T17:27:21.637Z,-4.80
2022-12-13T17:29:24.703Z,-4.80
2022-12-13T17:31:33.293Z,-4.80
2022-12-13T17:33:36.871Z,-4.80
2022-12-13T17:35:41.565Z,-4.80
2022-12-13T17:37:43.649Z,-4.80
2022-12-13T17:39:45.367Z,-4.90
2022-12-13T17:41:54.701Z,-4.80
2022-12-13T17:44:00.983Z,-4.80
2022-12-13T17:46:08.634Z,-4.80
2022-12-13T17:48:10.712Z,-4.80
2022-12-13T17:50:12.948Z,-4.80
2022-12-13T17:52:15.189Z,-4.80
2022-12-13T17:54:17.034Z,-4.80
2022-12-13T17:56:19.960Z,-4.70
2022-12-13T17:58:21.712Z,-4.80
2022-12-13T18:00:23.845Z,-4.80
2022-12-13T18:02:25.901Z,-4.90
2022-12-13T18:04:27.756Z,-4.90
2022-12-13T18:06:29.722Z,-4.90
2022-12-13T18:08:38.872Z,-4.90
2022-12-13T18:10:40.973Z,-5.00
2022-12-13T18:12:42.667Z,-4.90
2022-12-13T18:14:44.407Z,-4.90
2022-12-13T18:16:46.677Z,-4.90
2022-12-13T18:18:54.988Z,-4.90
2022-12-13T18:21:02.147Z,-4.90
2022-12-13T18:23:03.851Z,-4.90
2022-12-13T18:25:05.979Z,-4.80
2022-12-13T18:27:07.619Z,-4.90
2022-12-13T18:29:09.574Z,-4.90
2022-12-13T18:31:15.505Z,-4.90
2022-12-13T18:33:17.318Z,-4.90
2022-12-13T18:35:19.275Z,-4.90
2022-12-13T18:37:20.989Z,-4.90
2022-12-13T18:39:22.735Z,-4.90
2022-12-13T18:41:28.501Z,-4.90
2022-12-13T18:43:30.366Z,-4.90
2022-12-13T18:45:32.176Z,-4.80
2022-12-13T18:47:34.029Z,-4.80
2022-12-13T18:49:36.119Z,-4.80
2022-12-13T18:51:38.067Z,-4.80
2022-12-13T18:53:40.743Z,-4.80
2022-12-13T18:55:42.581Z,-4.80
2022-12-13T18:57:44.248Z,-4.80
2022-12-13T18:59:54.248Z,-4.70
2022-12-13T19:01:56.793Z,-4.70
2022-12-13T19:03:58.676Z,-4.70
2022-12-13T19:06:01.471Z,-4.80
2022-12-13T19:08:03.160Z,-4.80
2022-12-13T19:10:05.207Z,-4.70
2022-12-13T19:12:07.025Z,-4.80
2022-12-13T19:14:08.781Z,-4.80
2022-12-13T19:16:13.146Z,-4.80
2022-12-13T19:18:15.164Z,-4.80
2022-12-13T19:20:18.033Z,-4.80
2022-12-13T19:22:21.693Z,-4.80
2022-12-13T19:24:23.423Z,-4.80
2022-12-13T19:26:26.832Z,-4.80
2022-12-13T19:28:28.477Z,-4.80
2022-12-13T19:30:30.316Z,-4.80
2022-12-13T19:32:32.042Z,-4.80
2022-12-13T19:34:34.109Z,-4.70
2022-12-13T19:36:35.893Z,-4.70
2022-12-13T19:38:38.504Z,-4.70
2022-12-13T19:40:41.728Z,-4.60
2022-12-13T19:42:43.426Z,-4.60
2022-12-13T19:44:45.086Z,-4.60
2022-12-13T19:46:48.346Z,-4.60
2022-12-13T19:48:50.205Z,-4.60
2022-12-13T19:50:51.902Z,-4.50
2022-12-13T19:52:53.873Z,-4.50
2022-12-13T19:54:55.969Z,-4.50
2022-12-13T19:57:02.460Z,-4.50
2022-12-13T19:59:07.261Z,-4.40
2022-12-13T20:01:09.755Z,-4.50
2022-12-13T20:03:11.571Z,-4.50
2022-12-13T20:05:13.256Z,-4.50
2022-12-13T20:07:14.877Z,-4.50
2022-12-13T20:09:16.647Z,-4.50
2022-12-13T20:11:21.722Z,-4.40
2022-12-13T20:13:23.616Z,-4.50
2022-12-13T20:15:25.495Z,-4.50
2022-12-13T20:17:27.205Z,-4.50
2022-12-13T20:19:29.306Z,-4.50
2022-12-13T20:21:31.002Z,-4.50
2022-12-13T20:23:34.624Z,-4.50
2022-12-13T20:25:36.396Z,-4.60
2022-12-13T20:27:39.019Z,-4.60
2022-12-13T20:29:41.000Z,-4.60
2022-12-13T20:31:44.691Z,-4.60
2022-12-13T20:33:57.897Z,-4.60
2022-12-13T20:36:24.648Z,-4.60
2022-12-13T20:38:27.254Z,-4.60
2022-12-13T20:40:28.947Z,-4.70
2022-12-13T20:42:30.672Z,-4.70
2022-12-13T20:44:32.662Z,-4.70
2022-12-13T20:46:35.140Z,-4.70
2022-12-13T20:48:39.088Z,-4.70
2022-12-13T20:50:40.805Z,-4.70
2022-12-13T20:52:47.717Z,-4.70
2022-12-13T20:54:52.325Z,-4.70
2022-12-13T20:56:54.162Z,-4.60
2022-12-13T20:58:56.343Z,-4.60
2022-12-13T21:00:58.127Z,-4.70
2022-12-13T21:02:59.931Z,-4.60
2022-12-13T21:05:01.857Z,-4.70
2022-12-13T21:07:03.650Z,-4.70
2022-12-13T21:09:05.849Z,-4.70
2022-12-13T21:11:26.214Z,-4.70
2022-12-13T21:13:28.508Z,-4.70
2022-12-13T21:15:30.515Z,-4.70
2022-12-13T21:17:32.558Z,-4.70
2022-12-13T21:19:39.455Z,-4.70
2022-12-13T21:21:41.700Z,-4.70
2022-12-13T21:23:43.563Z,-4.60
2022-12-13T21:25:45.539Z,-4.60
2022-12-13T21:27:50.022Z,-4.60
2022-12-13T21:29:52.024Z,-4.60
2022-12-13T21:31:54.710Z,-4.60
2022-12-13T21:33:59.225Z,-4.50
2022-12-13T21:36:16.200Z,-4.60
2022-12-13T21:38:18.461Z,-4.60
2022-12-13T21:40:20.303Z,-4.60
2022-12-13T21:42:22.049Z,-4.60
2022-12-13T21:44:23.985Z,-4.60
2022-12-13T21:46:47.462Z,-4.60
2022-12-13T21:48:50.857Z,-4.60
2022-12-13T21:50:52.596Z,-4.60
2022-12-13T21:52:54.267Z,-4.50
2022-12-13T21:55:15.077Z,-4.50
2022-12-13T21:57:36.218Z,-4.60
2022-12-13T21:59:38.251Z,-4.60
2022-12-13T22:02:02.880Z,-4.60
2022-12-13T22:04:06.957Z,-4.60
2022-12-13T22:06:08.903Z,-4.60
2022-12-13T22:08:10.580Z,-4.60
2022-12-13T22:10:12.289Z,-4.60
2022-12-13T22:12:34.963Z,-4.60
2022-12-13T22:14:37.185Z,-4.60
2022-12-13T22:16:39.314Z,-4.60
2022-12-13T22:18:41.407Z,-4.50
2022-12-13T22:20:43.159Z,-4.40
2022-12-13T22:22:45.392Z,-4.40
2022-12-13T22:24:53.135Z,-4.40
2022-12-13T22:26:55.367Z,-4.30
2022-12-13T22:28:59.871Z,-4.30
2022-12-13T22:31:01.505Z,-4.30
2022-12-13T22:33:03.251Z,-4.30
2022-12-13T22:35:05.152Z,-4.30
2022-12-13T22:37:07.396Z,-4.30
2022-12-13T22:39:16.673Z,-4.30
2022-12-13T22:41:19.380Z,-4.20
2022-12-13T22:43:21.303Z,-4.20
2022-12-13T22:45:23.117Z,-4.20
2022-12-13T22:47:24.878Z,-4.20
2022-12-13T22:49:26.765Z,-4.20
2022-12-13T22:51:28.470Z,-4.10
2022-12-13T22:53:30.504Z,-4.10
2022-12-13T22:55:32.519Z,-4.10
2022-12-13T22:57:34.171Z,-4.10
2022-12-13T22:59:35.949Z,-4.10
2022-12-13T23:01:39.869Z,-4.00
2022-12-13T23:03:42.949Z,-4.10
2022-12-13T23:05:44.942Z,-4.10
2022-12-13T23:07:48.486Z,-4.10
2022-12-13T23:09:50.496Z,-4.10
2022-12-13T23:12:11.372Z,-4.10
2022-12-13T23:14:17.119Z,-4.10
2022-12-13T23:16:19.564Z,-4.10
2022-12-13T23:18:21.415Z,-4.10
2022-12-13T23:20:23.117Z,-4.10
2022-12-13T23:22:25.793Z,-4.10
2022-12-13T23:24:27.767Z,-4.10
2022-12-13T23:26:32.128Z,-4.10
2022-12-13T23:28:33.808Z,-4.10
2022-12-13T23:30:36.999Z,-4.10
2022-12-13T23:32:39.071Z,-4.10
2022-12-13T23:34:41.098Z,-4.10
2022-12-13T23:36:42.844Z,-4.10
2022-12-13T23:38:44.938Z,-4.00
2022-12-13T23:40:46.901Z,-4.00
2022-12-13T23:42:49.492Z,-4.00
2022-12-13T23:44:51.246Z,-4.00
2022-12-13T23:46:53.076Z,-3.90
2022-12-13T23:48:55.362Z,-3.90
2022-12-13T23:50:57.212Z,-3.90
2022-12-13T23:52:58.879Z,-3.90
2022-12-13T23:55:00.719Z,-3.90
2022-12-13T23:57:02.690Z,-3.90
2022-12-13T23:59:04.522Z,-3.90
